createdAt,value
2022-08-05T00:02:22.228Z,3.70
2022-08-05T00:04:55.523Z,2.90
2022-08-05T00:07:59.762Z,2.53
2022-08-05T00:10:11.063Z,2.60
2022-08-05T00:12:56.079Z,3.20
2022-08-05T00:15:56.451Z,3.17
2022-08-05T00:18:21.449Z,2.97
2022-08-05T00:20:50.753Z,3.15
2022-08-05T00:23:44.659Z,3.13
2022-08-05T00:26:08.039Z,3.30
2022-08-05T00:28:36.137Z,3.30
2022-08-05T00:31:04.733Z,2.67
2022-08-05T00:34:54.615Z,3.40
2022-08-05T00:37:13.280Z,3.00
2022-08-05T00:39:13.956Z,2.90
2022-08-05T00:41:55.141Z,2.75
2022-08-05T00:44:30.988Z,3.78
2022-08-05T00:47:01.861Z,2.70
2022-08-05T00:49:44.405Z,2.75
2022-08-05T00:52:19.141Z,2.72
2022-08-05T00:54:56.278Z,3.25
2022-08-05T00:57:25.274Z,3.38
2022-08-05T01:02:25.545Z,3.33
2022-08-05T01:04:52.514Z,4.22
2022-08-05T01:07:19.612Z,3.55
2022-08-05T01:09:46.741Z,3.78
2022-08-05T01:12:25.339Z,3.97
2022-08-05T01:15:34.954Z,3.45
2022-08-05T01:18:07.243Z,3.17
2022-08-05T01:20:44.825Z,3.17
2022-08-05T01:23:43.278Z,3.05
2022-08-05T01:26:55.006Z,3.38
2022-08-05T01:29:32.563Z,3.20
2022-08-05T01:32:12.467Z,4.10
2022-08-05T01:34:51.477Z,2.97
2022-08-05T01:37:46.297Z,3.95
2022-08-05T01:40:17.919Z,3.45
2022-08-05T01:42:46.638Z,3.63
2022-08-05T01:45:16.696Z,3.97
2022-08-05T01:47:45.578Z,3.50
2022-08-05T01:50:28.625Z,3.55
2022-08-05T01:53:02.708Z,3.53
2022-08-05T01:55:36.275Z,3.25
2022-08-05T01:58:10.299Z,3.83
2022-08-05T02:00:46.229Z,4.05
2022-08-05T02:03:28.930Z,3.75
2022-08-05T02:06:01.147Z,3.63
2022-08-05T02:08:58.205Z,3.20
2022-08-05T02:11:35.228Z,3.28
2022-08-05T02:14:14.084Z,3.85
2022-08-05T02:16:55.349Z,3.78
2022-08-05T02:19:28.337Z,3.83
2022-08-05T02:22:25.401Z,3.30
2022-08-05T02:25:05.693Z,3.70
2022-08-05T02:27:58.161Z,4.07
2022-08-05T02:30:28.523Z,4.03
2022-08-05T02:33:00.335Z,3.63
2022-08-05T02:35:37.812Z,3.72
2022-08-05T02:38:19.171Z,3.38
2022-08-05T02:40:47.572Z,4.32
2022-08-05T02:43:17.072Z,3.50
2022-08-05T02:45:52.259Z,3.97
2022-08-05T02:48:28.838Z,4.63
2022-08-05T02:51:02.079Z,3.85
2022-08-05T02:53:39.117Z,3.92
2022-08-05T02:56:09.266Z,3.40
2022-08-05T02:58:43.485Z,3.45
2022-08-05T03:01:19.575Z,3.63
2022-08-05T03:04:02.568Z,3.42
2022-08-05T03:06:56.161Z,3.70
2022-08-05T03:09:26.968Z,4.13
2022-08-05T03:12:05.799Z,3.65
2022-08-05T03:14:32.879Z,3.70
2022-08-05T03:17:00.817Z,3.63
2022-08-05T03:19:34.066Z,3.83
2022-08-05T03:22:05.030Z,4.47
2022-08-05T03:24:33.722Z,3.92
2022-08-05T03:27:02.045Z,5.25
2022-08-05T03:29:45.821Z,4.85
2022-08-05T03:32:17.148Z,4.65
2022-08-05T03:34:50.489Z,4.40
2022-08-05T03:37:20.815Z,4.30
2022-08-05T03:40:08.921Z,3.85
2022-08-05T03:42:51.530Z,3.97
2022-08-05T03:45:22.023Z,3.90
2022-08-05T03:47:51.521Z,3.63
2022-08-05T03:50:18.933Z,4.03
2022-08-05T03:55:49.976Z,4.10
2022-08-05T03:56:11.536Z,3.90
2022-08-05T03:58:42.954Z,3.58
2022-08-05T04:01:13.277Z,3.95
2022-08-05T04:04:09.751Z,4.45
2022-08-05T04:06:35.266Z,4.03
2022-08-05T04:09:05.902Z,4.40
2022-08-05T04:11:50.463Z,4.30
2022-08-05T04:14:29.949Z,3.55
2022-08-05T04:17:00.126Z,3.45
2022-08-05T04:19:29.036Z,3.08
2022-08-05T04:22:09.956Z,3.10
2022-08-05T04:24:52.485Z,2.95
2022-08-05T04:27:33.043Z,2.72
2022-08-05T04:30:08.914Z,3.15
2022-08-05T04:32:36.568Z,4.05
2022-08-05T04:35:05.911Z,3.55
2022-08-05T04:38:02.406Z,4.05
2022-08-05T04:40:20.318Z,2.65
2022-08-05T04:42:47.261Z,2.75
2022-08-05T04:45:30.980Z,2.95
2022-08-05T04:48:18.695Z,2.92
2022-08-05T04:51:01.547Z,2.90
2022-08-05T04:53:33.333Z,2.58
2022-08-05T04:56:33.959Z,2.38
2022-08-05T04:58:50.219Z,3.28
2022-08-05T05:02:08.196Z,2.85
2022-08-05T05:04:05.186Z,2.22
2022-08-05T05:06:39.151Z,2.42
2022-08-05T05:09:08.241Z,2.90
2022-08-05T05:11:54.065Z,2.53
2022-08-05T05:14:28.145Z,2.10
2022-08-05T05:17:02.011Z,2.50
2022-08-05T05:19:37.110Z,2.30
2022-08-05T05:22:23.992Z,3.00
2022-08-05T05:24:59.808Z,2.60
2022-08-05T05:27:41.745Z,2.22
2022-08-05T05:30:28.862Z,2.60
2022-08-05T05:33:08.935Z,2.63
2022-08-05T05:35:47.702Z,2.42
2022-08-05T05:38:26.708Z,2.15
2022-08-05T05:40:56.467Z,3.13
2022-08-05T05:43:57.048Z,2.30
2022-08-05T05:46:17.815Z,2.35
2022-08-05T05:48:48.287Z,2.20
2022-08-05T05:51:20.807Z,3.00
2022-08-05T05:53:58.024Z,2.00
2022-08-05T05:56:32.861Z,1.90
2022-08-05T05:59:07.726Z,2.38
2022-08-05T06:01:41.237Z,1.83
2022-08-05T06:04:24.995Z,1.65
2022-08-05T06:06:52.098Z,1.80
2022-08-05T06:09:35.345Z,3.28
2022-08-05T06:12:06.741Z,1.95
2022-08-05T06:14:36.726Z,2.30
2022-08-05T06:17:22.359Z,2.75
2022-08-05T06:19:57.129Z,1.85
2022-08-05T06:25:25.047Z,1.70
2022-08-05T06:28:10.755Z,2.10
2022-08-05T06:30:39.174Z,2.10
2022-08-05T06:33:10.738Z,2.13
2022-08-05T06:36:07.665Z,1.85
2022-08-05T06:38:36.505Z,2.58
2022-08-05T06:41:07.640Z,2.13
2022-08-05T06:43:57.440Z,2.15
2022-08-05T06:46:23.425Z,1.88
2022-08-05T06:48:59.525Z,1.77
2022-08-05T06:51:30.100Z,2.05
2022-08-05T06:54:00.005Z,2.40
2022-08-05T06:56:29.179Z,2.17
2022-08-05T06:58:57.245Z,2.05
2022-08-05T07:01:32.032Z,1.83
2022-08-05T07:04:03.251Z,1.80
2022-08-05T07:06:31.973Z,1.48
2022-08-05T07:09:04.058Z,1.77
2022-08-05T07:11:37.329Z,2.08
2022-08-05T07:17:59.045Z,1.35
2022-08-05T07:22:42.021Z,1.40
2022-08-05T07:25:22.525Z,1.38
2022-08-05T07:27:57.513Z,2.15
2022-08-05T07:30:33.327Z,1.40
2022-08-05T07:33:09.226Z,0.90
2022-08-05T07:36:04.202Z,1.10
2022-08-05T07:38:34.034Z,1.10
2022-08-05T07:42:06.831Z,1.20
2022-08-05T07:43:51.928Z,2.08
2022-08-05T07:46:24.867Z,1.65
2022-08-05T07:49:02.172Z,1.20
2022-08-05T07:51:37.608Z,1.10
2022-08-05T07:54:08.360Z,1.27
2022-08-05T07:57:00.691Z,1.38
2022-08-05T07:59:38.742Z,2.03
2022-08-05T08:02:16.267Z,1.17
2022-08-05T08:04:49.142Z,1.30
2022-08-05T08:07:22.792Z,1.90
2022-08-05T08:09:52.581Z,1.05
2022-08-05T08:12:37.418Z,0.80
2022-08-05T08:15:15.438Z,0.85
2022-08-05T08:17:52.577Z,0.80
2022-08-05T08:21:00.162Z,0.50
2022-08-05T08:24:00.055Z,0.60
2022-08-05T08:26:04.386Z,0.60
2022-08-05T08:28:37.396Z,0.73
2022-08-05T08:31:19.643Z,1.00
2022-08-05T08:33:51.711Z,0.70
2022-08-05T08:36:39.052Z,0.60
2022-08-05T08:39:15.037Z,0.90
2022-08-05T08:41:51.683Z,1.00
2022-08-05T08:45:16.431Z,0.68
2022-08-05T08:48:06.656Z,0.43
2022-08-05T08:50:52.104Z,0.60
2022-08-05T08:53:12.251Z,0.43
2022-08-05T08:56:03.605Z,0.40
2022-08-05T08:58:43.524Z,0.38
2022-08-05T09:01:16.884Z,0.47
2022-08-05T09:03:55.366Z,0.60
2022-08-05T09:06:29.269Z,0.40
2022-08-05T09:08:59.758Z,1.05
2022-08-05T09:11:50.956Z,0.30
2022-08-05T09:14:56.937Z,0.30
2022-08-05T09:17:08.256Z,0.38
2022-08-05T09:20:01.486Z,0.30
2022-08-05T09:22:32.011Z,0.40
2022-08-05T09:25:14.084Z,0.50
2022-08-05T09:28:04.775Z,0.35
2022-08-05T09:30:34.911Z,0.82
2022-08-05T09:33:02.975Z,0.50
2022-08-05T09:35:32.812Z,0.30
2022-08-05T09:38:17.542Z,0.50
2022-08-05T09:40:52.534Z,0.30
2022-08-05T09:43:40.761Z,0.20
2022-08-05T09:46:35.079Z,0.20
2022-08-05T09:49:19.425Z,0.20
2022-08-05T09:51:49.564Z,0.25
2022-08-05T09:54:28.781Z,0.20
2022-08-05T09:56:57.519Z,0.88
2022-08-05T09:59:27.490Z,0.20
2022-08-05T10:01:57.912Z,0.20
2022-08-05T10:04:38.402Z,0.30
2022-08-05T10:07:19.913Z,0.40
2022-08-05T10:10:14.005Z,0.10
2022-08-05T10:12:55.646Z,0.10
2022-08-05T10:15:34.098Z,0.55
2022-08-05T10:18:32.027Z,0.20
2022-08-05T10:21:11.980Z,0.20
2022-08-05T10:23:59.235Z,0.30
2022-08-05T10:26:32.700Z,0.20
2022-08-05T10:29:01.177Z,0.20
2022-08-05T10:32:52.386Z,0.30
2022-08-05T10:34:17.009Z,0.30
2022-08-05T10:36:44.423Z,0.20
2022-08-05T10:39:58.948Z,0.13
2022-08-05T10:42:33.354Z,0.30
2022-08-05T10:45:21.196Z,0.30
2022-08-05T10:48:29.243Z,0.40
2022-08-05T10:51:01.913Z,0.08
2022-08-05T10:53:42.663Z,0.20
2022-08-05T10:56:25.379Z,0.30
2022-08-05T10:58:58.694Z,0.25
2022-08-05T11:01:55.644Z,0.20
2022-08-05T11:04:31.693Z,0.20
2022-08-05T11:07:04.848Z,0.10
2022-08-05T11:09:46.701Z,0.20
2022-08-05T11:12:42.061Z,0.10
2022-08-05T11:15:21.315Z,0.47
2022-08-05T11:17:57.290Z,0.20
2022-08-05T11:20:46.308Z,0.20
2022-08-05T11:24:05.093Z,0.17
2022-08-05T11:26:43.151Z,0.20
2022-08-05T11:29:43.037Z,0.30
2022-08-05T11:32:30.062Z,0.15
2022-08-05T11:34:57.667Z,0.20
2022-08-05T11:38:29.638Z,0.20
2022-08-05T11:41:14.130Z,0.20
2022-08-05T11:44:07.176Z,0.65
2022-08-05T11:46:58.634Z,0.15
2022-08-05T11:49:28.205Z,0.47
2022-08-05T11:51:57.559Z,0.20
2022-08-05T11:54:33.419Z,0.20
2022-08-05T11:57:08.372Z,0.20
2022-08-05T11:59:52.058Z,0.32
2022-08-05T12:02:32.544Z,0.28
2022-08-05T12:05:07.963Z,0.20
2022-08-05T12:08:03.823Z,0.22
2022-08-05T12:10:38.460Z,0.20
2022-08-05T12:13:17.130Z,0.22
2022-08-05T12:15:49.842Z,0.20
2022-08-05T12:18:38.944Z,0.10
2022-08-05T12:21:15.427Z,0.20
2022-08-05T12:23:53.464Z,0.30
2022-08-05T12:26:20.928Z,0.47
2022-08-05T12:28:50.347Z,0.63
2022-08-05T12:31:23.788Z,0.20
2022-08-05T12:34:03.129Z,0.30
2022-08-05T12:36:31.253Z,0.82
2022-08-05T12:38:59.309Z,0.25
2022-08-05T12:41:35.745Z,0.45
2022-08-05T12:44:14.362Z,0.20
2022-08-05T12:46:45.474Z,0.15
2022-08-05T12:49:15.830Z,0.50
2022-08-05T12:52:12.687Z,0.20
2022-08-05T12:54:52.093Z,0.15
2022-08-05T12:57:19.959Z,0.20
2022-08-05T13:01:56.729Z,0.52
2022-08-05T13:02:43.326Z,0.25
2022-08-05T13:05:15.208Z,0.17
2022-08-05T13:08:00.395Z,0.10
2022-08-05T13:12:58.432Z,0.30
2022-08-05T13:15:36.105Z,0.30
2022-08-05T13:18:09.352Z,0.45
2022-08-05T13:20:40.421Z,0.20
2022-08-05T13:23:08.409Z,0.20
2022-08-05T13:25:52.722Z,0.20
2022-08-05T13:28:22.405Z,0.35
2022-08-05T13:30:51.107Z,0.20
2022-08-05T13:34:23.040Z,0.30
2022-08-05T13:36:09.477Z,0.30
2022-08-05T13:38:38.433Z,0.10
2022-08-05T13:41:12.946Z,0.40
2022-08-05T13:43:45.689Z,0.10
2022-08-05T13:46:37.726Z,0.20
2022-08-05T13:49:13.791Z,0.10
2022-08-05T13:51:46.111Z,0.32
2022-08-05T13:54:16.393Z,0.10
2022-08-05T13:56:51.050Z,0.25
2022-08-05T13:59:24.337Z,0.10
2022-08-05T14:01:58.210Z,0.30
2022-08-05T14:04:56.648Z,0.10
2022-08-05T14:07:59.945Z,0.20
2022-08-05T14:10:28.822Z,0.20
2022-08-05T14:12:58.715Z,0.20
2022-08-05T14:16:07.160Z,0.30
2022-08-05T14:18:17.360Z,0.20
2022-08-05T14:20:47.890Z,0.22
2022-08-05T14:23:24.563Z,0.10
2022-08-05T14:25:57.913Z,0.20
2022-08-05T14:28:28.228Z,0.20
2022-08-05T14:30:59.461Z,0.20
2022-08-05T14:33:27.936Z,0.20
2022-08-05T14:36:20.580Z,0.63
2022-08-05T14:38:49.690Z,0.22
2022-08-05T14:41:17.714Z,0.28
2022-08-05T14:43:58.767Z,0.20
2022-08-05T14:46:29.594Z,0.25
2022-08-05T14:49:06.949Z,0.10
2022-08-05T14:51:37.557Z,0.40
2022-08-05T14:54:26.929Z,0.35
2022-08-05T14:56:56.077Z,0.20
2022-08-05T14:59:23.699Z,0.32
2022-08-05T15:01:51.070Z,0.40
2022-08-05T15:04:20.632Z,0.20
2022-08-05T15:06:51.262Z,0.30
2022-08-05T15:09:52.194Z,0.20
2022-08-05T15:12:11.509Z,0.25
2022-08-05T15:14:50.220Z,0.10
2022-08-05T15:17:45.712Z,0.10
2022-08-05T15:20:19.085Z,0.30
2022-08-05T15:22:52.218Z,0.30
2022-08-05T15:25:51.102Z,0.30
2022-08-05T15:28:14.728Z,0.20
2022-08-05T15:30:45.904Z,0.40
2022-08-05T15:34:04.563Z,0.30
2022-08-05T15:36:06.176Z,0.32
2022-08-05T15:38:44.507Z,0.30
2022-08-05T15:41:22.758Z,0.10
2022-08-05T15:43:54.854Z,0.20
2022-08-05T15:46:24.157Z,0.20
2022-08-05T15:49:00.716Z,0.20
2022-08-05T15:52:04.402Z,0.50
2022-08-05T15:54:25.483Z,0.20
2022-08-05T15:57:07.747Z,0.32
2022-08-05T15:59:36.167Z,0.20
2022-08-05T16:02:09.444Z,0.68
2022-08-05T16:04:41.817Z,0.20
2022-08-05T16:07:10.628Z,0.20
2022-08-05T16:09:38.083Z,0.10
2022-08-05T16:12:09.412Z,0.20
2022-08-05T16:14:38.591Z,0.40
2022-08-05T16:17:05.952Z,0.30
2022-08-05T16:20:03.317Z,0.57
2022-08-05T16:22:27.325Z,0.52
2022-08-05T16:24:54.942Z,0.30
2022-08-05T16:27:46.764Z,0.20
2022-08-05T16:30:23.172Z,0.65
2022-08-05T16:32:50.562Z,0.30
2022-08-05T16:35:17.542Z,0.77
2022-08-05T16:38:16.226Z,1.00
2022-08-05T16:40:32.427Z,0.20
2022-08-05T16:43:00.032Z,0.30
2022-08-05T16:46:03.581Z,0.75
2022-08-05T16:48:26.111Z,0.20
2022-08-05T16:51:01.216Z,0.30
2022-08-05T16:53:31.808Z,1.08
2022-08-05T16:55:59.881Z,0.20
2022-08-05T16:58:27.218Z,0.35
2022-08-05T17:00:54.334Z,0.20
2022-08-05T17:03:22.020Z,0.20
2022-08-05T17:05:53.889Z,0.75
2022-08-05T17:08:36.278Z,0.20
2022-08-05T17:11:17.678Z,0.30
2022-08-05T17:13:45.908Z,0.40
2022-08-05T17:16:32.883Z,0.20
2022-08-05T17:19:00.589Z,0.20
2022-08-05T17:21:35.633Z,0.20
2022-08-05T17:24:28.197Z,0.30
2022-08-05T17:26:58.526Z,0.20
2022-08-05T17:29:33.324Z,0.38
2022-08-05T17:32:11.492Z,0.40
2022-08-05T17:34:47.675Z,0.40
2022-08-05T17:37:39.610Z,0.30
2022-08-05T17:40:15.198Z,0.25
2022-08-05T17:42:51.035Z,0.35
2022-08-05T17:45:22.050Z,0.28
2022-08-05T17:47:54.846Z,0.40
2022-08-05T17:50:28.771Z,0.30
2022-08-05T17:53:02.757Z,0.47
2022-08-05T17:55:38.219Z,0.47
2022-08-05T17:58:13.416Z,0.20
2022-08-05T18:00:47.106Z,0.77
2022-08-05T18:03:56.401Z,0.30
2022-08-05T18:06:15.042Z,0.40
2022-08-05T18:08:46.036Z,0.63
2022-08-05T18:11:24.652Z,1.15
2022-08-05T18:14:07.413Z,0.80
2022-08-05T18:16:46.822Z,0.30
2022-08-05T18:19:26.004Z,0.30
2022-08-05T18:22:09.034Z,0.40
2022-08-05T18:24:39.483Z,0.30
2022-08-05T18:27:12.705Z,0.20
2022-08-05T18:29:51.932Z,0.30
2022-08-05T18:32:28.040Z,0.30
2022-08-05T18:34:57.737Z,0.50
2022-08-05T18:37:34.440Z,0.25
2022-08-05T18:41:03.120Z,0.47
2022-08-05T18:42:56.939Z,0.40
2022-08-05T18:45:24.810Z,0.50
2022-08-05T18:47:56.621Z,0.30
2022-08-05T18:50:46.356Z,0.60
2022-08-05T18:53:19.230Z,0.50
2022-08-05T18:55:52.285Z,1.10
2022-08-05T18:58:26.969Z,0.30
2022-08-05T19:00:56.749Z,0.70
2022-08-05T19:03:52.902Z,0.40
2022-08-05T19:06:21.944Z,0.60
2022-08-05T19:08:49.634Z,0.70
2022-08-05T19:11:21.950Z,0.80
2022-08-05T19:14:00.639Z,0.65
2022-08-05T19:16:33.116Z,0.55
2022-08-05T19:19:13.972Z,0.50
2022-08-05T19:21:40.933Z,0.63
2022-08-05T19:24:12.523Z,0.40
2022-08-05T19:26:54.382Z,0.43
2022-08-05T19:29:23.862Z,0.70
2022-08-05T19:31:57.899Z,0.52
2022-08-05T19:34:25.280Z,0.65
2022-08-05T19:36:52.425Z,0.63
2022-08-05T19:39:19.401Z,1.73
2022-08-05T19:42:05.591Z,0.47
2022-08-05T19:44:37.452Z,0.43
2022-08-05T19:47:15.308Z,0.47
2022-08-05T19:49:46.050Z,1.77
2022-08-05T19:52:30.865Z,1.33
2022-08-05T19:55:00.433Z,0.40
2022-08-05T19:57:46.495Z,0.52
2022-08-05T20:00:20.943Z,0.60
2022-08-05T20:02:47.895Z,0.60
2022-08-05T20:05:16.390Z,0.73
2022-08-05T20:07:55.032Z,0.70
2022-08-05T20:10:25.039Z,0.75
2022-08-05T20:12:55.261Z,0.70
2022-08-05T20:15:23.399Z,0.50
2022-08-05T20:18:33.902Z,0.80
2022-08-05T20:20:57.374Z,0.50
2022-08-05T20:23:39.324Z,0.47
2022-08-05T20:26:15.862Z,1.05
2022-08-05T20:28:51.442Z,1.13
2022-08-05T20:31:37.658Z,0.43
2022-08-05T20:34:10.779Z,0.40
2022-08-05T20:36:39.190Z,0.32
2022-08-05T20:39:16.676Z,0.70
2022-08-05T20:41:45.439Z,0.57
2022-08-05T20:44:18.617Z,0.60
2022-08-05T20:47:04.924Z,0.93
2022-08-05T20:49:39.302Z,0.73
2022-08-05T20:52:07.600Z,1.35
2022-08-05T20:54:43.349Z,0.63
2022-08-05T20:57:42.703Z,0.68
2022-08-05T21:00:40.042Z,1.08
2022-08-05T21:03:06.283Z,0.77
2022-08-05T21:05:54.427Z,0.40
2022-08-05T21:08:41.966Z,0.88
2022-08-05T21:11:51.659Z,0.50
2022-08-05T21:14:02.667Z,1.10
2022-08-05T21:16:30.878Z,0.60
2022-08-05T21:19:01.955Z,0.50
2022-08-05T21:21:39.686Z,0.88
2022-08-05T21:24:13.488Z,0.60
2022-08-05T21:26:46.061Z,0.90
2022-08-05T21:29:20.082Z,0.50
2022-08-05T21:31:51.019Z,0.57
2022-08-05T21:34:19.792Z,1.60
2022-08-05T21:36:49.107Z,0.55
2022-08-05T21:39:16.833Z,0.70
2022-08-05T21:41:52.865Z,0.80
2022-08-05T21:44:28.464Z,0.70
2022-08-05T21:46:55.656Z,0.70
2022-08-05T21:50:00.253Z,1.35
2022-08-05T21:52:21.732Z,0.70
2022-08-05T21:54:55.121Z,0.52
2022-08-05T21:57:42.482Z,0.45
2022-08-05T22:00:11.845Z,0.82
2022-08-05T22:02:43.103Z,0.50
2022-08-05T22:05:12.002Z,0.70
2022-08-05T22:08:02.046Z,0.88
2022-08-05T22:10:27.634Z,0.85
2022-08-05T22:13:09.259Z,0.60
2022-08-05T22:15:56.570Z,0.55
2022-08-05T22:18:29.062Z,0.70
2022-08-05T22:20:56.904Z,1.20
2022-08-05T22:24:02.701Z,0.68
2022-08-05T22:27:10.939Z,0.80
2022-08-05T22:29:43.572Z,1.00
2022-08-05T22:32:10.586Z,1.33
2022-08-05T22:34:37.581Z,1.00
2022-08-05T22:37:04.822Z,1.00
2022-08-05T22:39:33.990Z,1.40
2022-08-05T22:42:10.273Z,1.75
2022-08-05T22:44:48.439Z,0.90
2022-08-05T22:47:29.256Z,1.33
2022-08-05T22:50:19.431Z,1.63
2022-08-05T22:52:51.436Z,1.40
2022-08-05T22:55:21.277Z,1.10
2022-08-05T22:57:53.380Z,1.00
2022-08-05T23:00:22.310Z,1.83
2022-08-05T23:02:50.835Z,1.05
2022-08-05T23:05:18.964Z,0.85
2022-08-05T23:07:50.239Z,1.02
2022-08-05T23:10:24.054Z,1.30
2022-08-05T23:12:55.057Z,1.08
2022-08-05T23:15:29.312Z,0.80
2022-08-05T23:18:01.572Z,1.95
2022-08-05T23:20:32.329Z,1.10
2022-08-05T23:23:00.670Z,0.93
2022-08-05T23:25:53.523Z,1.20
2022-08-05T23:28:20.267Z,0.95
2022-08-05T23:30:53.650Z,0.95
2022-08-05T23:33:26.340Z,0.63
2022-08-05T23:36:10.988Z,1.00
2022-08-05T23:38:41.434Z,1.50
2022-08-05T23:41:10.477Z,0.95
2022-08-05T23:44:04.431Z,1.08
2022-08-05T23:46:24.875Z,1.02
2022-08-05T23:49:00.699Z,1.00
2022-08-05T23:51:56.994Z,0.70
2022-08-05T23:54:34.258Z,1.05
2022-08-05T23:57:05.227Z,1.20
